Weather History for Charleston, SC

Change the Weather History Date:

Wednesday, October 16, 2013

  Actual Average (KCHS) Record (KCHS)
Temperature  
Mean Temperature 68 °F 67 °F  
Max Temperature 75 °F 77 °F 87 °F (1942)
Min Temperature 62 °F 57 °F 38 °F (1978)
Degree Days  
Heating Degree Days 0 2  
Month to date heating degree days 20  
Since 1 July heating degree days 23  
Cooling Degree Days 4 4  
Month to date cooling degree days 86  
Year to date cooling degree days 2224  
Growing Degree Days 18 (Base 50)    
Moisture  
Dew Point 62 °F    
Average Humidity 82    
Maximum Humidity 94    
Minimum Humidity 65    
Precipitation  
Precipitation 0.00 in 0.12 in 1.55 in (1968)
Month to date precipitation 2.23  
Year to date precipitation 43.97  
Sea Level Pressure  
Sea Level Pressure 30.01 in    
Wind  
Wind Speed 3 mph (NNE)    
Max Wind Speed 9 mph    
Max Gust Speed -    
Visibility 10 miles    
Events      
T = Trace of Precipitation, MM = Missing Value Source: NWS Daily Summary

Daily Weather History Graph

Daily Weather History Graph

Search for Another Location

Airport:

Trip Planner

Search our weather history database for the weather conditions in past years. The results will help you decide how hot, cold, wet, or windy it might be!

Date:

Astronomy

Oct. 16, 2013 Rise Set
Actual Time 7:24 AM EDT 6:45 PM EDT
Civil Twilight 7:00 AM EDT 7:10 PM EDT
Nautical Twilight 6:31 AM EDT 7:39 PM EDT
Astronomical Twilight 6:02 AM EDT 8:07 PM EDT
Moon 5:18 PM EDT (10/16) 4:58 AM EDT (10/16)
Length of Visible Light 12h 10m
Length of Day
11h 20m
Waxing Gibbous, 94% of the Moon is Illuminated
Oct 16
Waxing Gibbous
Oct 18
Full
Oct 26
Last Quarter
Nov 3
New
Nov 10
First Quarter

Hourly Weather History & Observations

Time (EDT) Temp. Dew Point Humidity Pressure Visibility Wind Dir Wind Speed Gust Speed Precip Events Conditions
12:15 AM 64.4 °F 60.8 °F 88% 30.03 in 10.0 mi Calm Calm - 0.00 in   Overcast
12:35 AM 64.4 °F 60.8 °F 88% 30.02 in 10.0 mi Calm Calm - 0.00 in   Overcast
12:55 AM 66.2 °F 62.6 °F 88% 30.02 in 10.0 mi Calm Calm - 0.00 in   Overcast
1:15 AM 64.4 °F 60.8 °F 88% 30.01 in 10.0 mi Calm Calm - 0.00 in   Scattered Clouds
1:35 AM 62.6 °F 60.8 °F 94% 30.02 in 10.0 mi Calm Calm - 0.00 in   Scattered Clouds
1:55 AM 64.4 °F 60.8 °F 88% 30.02 in 10.0 mi Calm Calm - 0.00 in   Scattered Clouds
2:15 AM 62.6 °F 60.8 °F 94% 30.02 in 10.0 mi Calm Calm - 0.00 in   Partly Cloudy
2:35 AM 62.6 °F 60.8 °F 94% 30.02 in 10.0 mi Calm Calm - 0.00 in   Scattered Clouds
2:55 AM 64.4 °F 62.6 °F 94% 30.01 in 10.0 mi Calm Calm - 0.00 in   Mostly Cloudy
3:15 AM 64.4 °F 62.6 °F 94% 30.01 in 10.0 mi Calm Calm - 0.00 in   Overcast
3:35 AM 66.2 °F 62.6 °F 88% 30.00 in 10.0 mi Calm Calm - 0.00 in   Mostly Cloudy
3:55 AM 66.2 °F 62.6 °F 88% 30.00 in 10.0 mi North 3.5 mph - 0.00 in   Partly Cloudy
4:15 AM 66.2 °F 62.6 °F 88% 30.00 in 10.0 mi Calm Calm - 0.00 in   Partly Cloudy
4:35 AM 66.2 °F 62.6 °F 88% 30.00 in 10.0 mi North 3.5 mph - 0.00 in   Scattered Clouds
4:55 AM 64.4 °F 62.6 °F 94% 30.00 in 10.0 mi NNW 3.5 mph - 0.00 in   Partly Cloudy
5:15 AM 64.4 °F 62.6 °F 94% 30.00 in 10.0 mi North 4.6 mph - 0.00 in   Clear
5:35 AM 64.4 °F 62.6 °F 94% 30.00 in 10.0 mi North 5.8 mph - 0.00 in   Clear
5:55 AM 64.4 °F 62.6 °F 94% 30.00 in 10.0 mi North 4.6 mph - 0.00 in   Clear
6:15 AM 64.4 °F 62.6 °F 94% 30.00 in 10.0 mi North 4.6 mph - 0.00 in   Clear
6:35 AM 64.4 °F 62.6 °F 94% 30.00 in 10.0 mi North 4.6 mph - 0.00 in   Clear
6:55 AM 62.6 °F 60.8 °F 94% 30.01 in 8.0 mi NNW 3.5 mph - 0.00 in   Clear
7:15 AM 64.4 °F 62.6 °F 94% 30.02 in 7.0 mi North 3.5 mph - 0.00 in   Clear
7:35 AM 62.6 °F 60.8 °F 94% 30.02 in 4.0 mi North 3.5 mph - 0.00 in   Clear
7:55 AM 62.6 °F 60.8 °F 94% 30.02 in 5.0 mi North 3.5 mph - 0.00 in   Clear
8:15 AM 66.2 °F 64.4 °F 94% 30.03 in 5.0 mi Calm Calm - 0.00 in   Clear
8:35 AM 68.0 °F 64.4 °F 88% 30.03 in 8.0 mi North 5.8 mph - 0.00 in   Clear
8:55 AM 69.8 °F 64.4 °F 83% 30.03 in 10.0 mi NNE 6.9 mph - 0.00 in   Clear
9:15 AM 69.8 °F 64.4 °F 83% 30.03 in 10.0 mi NNE 8.1 mph - 0.00 in   Clear
9:35 AM 71.6 °F 64.4 °F 78% 30.03 in 10.0 mi NNE 3.5 mph - 0.00 in   Clear
9:55 AM 71.6 °F 62.6 °F 73% 30.03 in 10.0 mi NNE 5.8 mph - 0.00 in   Clear
10:15 AM 73.4 °F 64.4 °F 73% 30.03 in 10.0 mi North 6.9 mph - 0.00 in   Clear
10:35 AM 73.4 °F 62.6 °F 69% 30.03 in 10.0 mi NE 6.9 mph - 0.00 in   Partly Cloudy
10:55 AM 73.4 °F 62.6 °F 69% 30.04 in 10.0 mi North 5.8 mph - 0.00 in   Partly Cloudy
11:15 AM 75.2 °F 64.4 °F 69% 30.04 in 10.0 mi NNE 8.1 mph - 0.00 in   Mostly Cloudy
11:35 AM 73.4 °F 64.4 °F 73% 30.04 in 10.0 mi North 6.9 mph - 0.00 in   Overcast
11:55 AM 73.4 °F 62.6 °F 69% 30.04 in 10.0 mi North 6.9 mph - 0.00 in   Mostly Cloudy
12:15 PM 75.2 °F 62.6 °F 65% 30.03 in 10.0 mi NE 9.2 mph - 0.00 in   Mostly Cloudy
12:35 PM 73.4 °F 62.6 °F 69% 30.03 in 10.0 mi NNE 6.9 mph - 0.00 in   Mostly Cloudy
12:55 PM 75.2 °F 64.4 °F 69% 30.02 in 10.0 mi NNE 8.1 mph - 0.00 in   Mostly Cloudy
1:15 PM 75.2 °F 62.6 °F 65% 30.01 in 10.0 mi North 6.9 mph - 0.00 in   Mostly Cloudy
1:35 PM 75.2 °F 62.6 °F 65% 30.01 in 10.0 mi NNE 8.1 mph - 0.00 in   Mostly Cloudy
1:55 PM 75.2 °F 62.6 °F 65% 30.00 in 10.0 mi NNW 8.1 mph - 0.00 in   Clear
2:15 PM 75.2 °F 62.6 °F 65% 30.00 in 10.0 mi NNE 4.6 mph - 0.00 in   Clear
2:35 PM 75.2 °F 62.6 °F 65% 29.99 in 10.0 mi NNW 6.9 mph - 0.00 in   Partly Cloudy
2:55 PM 75.2 °F 62.6 °F 65% 29.98 in 10.0 mi NNE 8.1 mph - 0.00 in   Scattered Clouds
3:15 PM 75.2 °F 62.6 °F 65% 29.98 in 10.0 mi NE 5.8 mph - 0.00 in   Partly Cloudy
3:35 PM 75.2 °F 62.6 °F 65% 29.97 in 10.0 mi NNE 5.8 mph - 0.00 in   Partly Cloudy
3:55 PM 75.2 °F 64.4 °F 69% 29.97 in 10.0 mi NNE 6.9 mph - 0.00 in   Partly Cloudy
4:15 PM 75.2 °F 62.6 °F 65% 29.97 in 10.0 mi NE 6.9 mph - 0.00 in   Mostly Cloudy
4:35 PM 75.2 °F 62.6 °F 65% 29.97 in 10.0 mi NNE 4.6 mph - 0.00 in   Scattered Clouds
4:55 PM 75.2 °F 62.6 °F 65% 29.97 in 10.0 mi NNE 8.1 mph - 0.00 in   Partly Cloudy
5:15 PM 73.4 °F 62.6 °F 69% 29.97 in 10.0 mi North 5.8 mph - 0.00 in   Partly Cloudy
5:35 PM 73.4 °F 62.6 °F 69% 29.97 in 10.0 mi NE 4.6 mph - 0.00 in   Clear
5:55 PM 73.4 °F 62.6 °F 69% 29.98 in 10.0 mi NNE 4.6 mph - 0.00 in   Clear
6:15 PM 71.6 °F 62.6 °F 73% 29.98 in 10.0 mi ENE 5.8 mph - 0.00 in   Clear
6:35 PM 69.8 °F 62.6 °F 78% 29.98 in 10.0 mi NE 5.8 mph - 0.00 in   Clear
6:55 PM 69.8 °F 62.6 °F 78% 29.98 in 10.0 mi Calm Calm - 0.00 in   Clear
7:15 PM 69.8 °F 62.6 °F 78% 29.99 in 10.0 mi Calm Calm - 0.00 in   Clear
7:35 PM 68.0 °F 62.6 °F 83% 30.00 in 10.0 mi Calm Calm - 0.00 in   Clear
7:55 PM 66.2 °F 62.6 °F 88% 30.00 in 10.0 mi Calm Calm - 0.00 in   Clear
8:15 PM 66.2 °F 62.6 °F 88% 30.00 in 10.0 mi Calm Calm - 0.00 in   Clear
8:35 PM 66.2 °F 62.6 °F 88% 30.00 in 10.0 mi Calm Calm - 0.00 in   Clear
8:55 PM 64.4 °F 62.6 °F 94% 30.01 in 10.0 mi Calm Calm - 0.00 in   Clear
9:15 PM 64.4 °F 62.6 °F 94% 30.01 in 10.0 mi Calm Calm - 0.00 in   Clear
9:35 PM 64.4 °F 60.8 °F 88% 30.01 in 10.0 mi Calm Calm - 0.00 in   Clear
9:55 PM 64.4 °F 60.8 °F 88% 30.01 in 10.0 mi Calm Calm - 0.00 in   Clear
10:15 PM 64.4 °F 60.8 °F 88% 30.02 in 10.0 mi Calm Calm - 0.00 in   Clear
10:35 PM 64.4 °F 60.8 °F 88% 30.02 in 10.0 mi Calm Calm - 0.00 in   Clear
10:55 PM 62.6 °F 60.8 °F 94% 30.01 in 9.0 mi Calm Calm - 0.00 in   Clear
11:15 PM 62.6 °F 60.8 °F 94% 30.01 in 10.0 mi Calm Calm - 0.00 in   Clear
11:35 PM 62.6 °F 60.8 °F 94% 30.00 in 9.0 mi Calm Calm - 0.00 in   Clear
11:55 PM 62.6 °F 60.8 °F 94% 29.99 in 10.0 mi Calm Calm - 0.00 in   Clear